Time;durP1;ratioP1;P1;durP2;ratioP2;P2;SDS_P1;SDS_P2;PMS_P1;PMS_P2;Temp;Humidity;BMP_temperature;BMP_pressure;BME280_temperature;BME280_humidity;BME280_pressure;Samples;Min_cycle;Max_cycle;Signal;HPM_P1;HPM_P2
2022/03/08 00:01:17;;;;;;;11.85;11.00;;;;;;;1.11;70.83;94675.91;5116461;28;20204;-64
2022/03/08 00:03:46;;;;;;;12.70;11.73;;;;;;;1.08;70.51;94681.94;5117425;28;20184;-64
2022/03/08 00:06:12;;;;;;;12.05;11.15;;;;;;;1.04;71.17;94684.44;5117068;28;20176;-64
2022/03/08 00:08:40;;;;;;;12.25;11.35;;;;;;;1.04;71.40;94679.00;5116597;28;20631;-64
2022/03/08 00:11:07;;;;;;;12.38;11.48;;;;;;;1.06;71.46;94679.53;5116964;28;20535;-64
2022/03/08 00:13:34;;;;;;;12.05;11.13;;;;;;;1.06;71.01;94671.38;5117242;28;20191;-64
2022/03/08 00:16:00;;;;;;;11.40;10.55;;;;;;;1.05;71.12;94677.91;5116917;28;20199;-65
2022/03/08 00:18:27;;;;;;;12.27;11.35;;;;;;;1.09;71.38;94678.94;5117248;28;20180;-64
2022/03/08 00:20:55;;;;;;;12.32;11.43;;;;;;;1.13;71.15;94684.56;5116994;28;20184;-64
2022/03/08 00:23:22;;;;;;;12.55;11.60;;;;;;;1.14;71.23;94683.44;5116972;28;20304;-64
2022/03/08 00:25:49;;;;;;;12.68;11.68;;;;;;;1.13;70.61;94679.13;5116632;28;20195;-65
2022/03/08 00:28:16;;;;;;;12.38;11.48;;;;;;;1.13;70.60;94682.66;5116257;28;20585;-64
2022/03/08 00:30:43;;;;;;;11.93;11.02;;;;;;;1.15;70.60;94682.34;5117140;28;20555;-64
2022/03/08 00:33:10;;;;;;;12.75;11.75;;;;;;;1.14;70.78;94681.53;5116549;28;20183;-64
2022/03/08 00:35:37;;;;;;;12.15;11.25;;;;;;;1.19;70.12;94680.63;5116333;28;20644;-64
2022/03/08 00:38:05;;;;;;;12.40;11.50;;;;;;;1.11;69.87;94682.13;5117042;28;20219;-64
2022/03/08 00:40:32;;;;;;;12.52;11.63;;;;;;;1.09;70.51;94673.50;5116450;28;20512;-64
2022/03/08 00:42:59;;;;;;;12.60;11.60;;;;;;;1.12;69.95;94680.22;5115535;28;20242;-64
2022/03/08 00:45:26;;;;;;;12.23;11.32;;;;;;;1.08;69.26;94680.03;5116181;28;20179;-64
2022/03/08 00:47:52;;;;;;;12.98;12.00;;;;;;;1.10;69.84;94677.81;5116541;28;20188;-64
2022/03/08 00:50:21;;;;;;;13.27;12.27;;;;;;;1.11;69.56;94675.91;5116465;28;20194;-64
2022/03/08 00:52:49;;;;;;;12.95;11.95;;;;;;;1.14;69.82;94683.44;5115830;28;20566;-64
2022/03/08 00:55:18;;;;;;;12.40;11.50;;;;;;;1.16;69.82;94678.50;5116210;28;20178;-64
2022/03/08 00:57:46;;;;;;;13.57;12.48;;;;;;;1.15;69.17;94671.47;5116521;28;20207;-64
2022/03/08 01:00:16;;;;;;;13.80;12.70;;;;;;;1.10;69.43;94671.59;5115524;28;20213;-64
2022/03/08 01:02:43;;;;;;;12.65;11.63;;;;;;;1.09;69.37;94669.94;5115128;28;20192;-64
2022/03/08 01:05:11;;;;;;;12.60;11.65;;;;;;;1.11;69.61;94673.19;5115253;28;20187;-64
2022/03/08 01:07:38;;;;;;;12.85;11.85;;;;;;;1.15;70.00;94669.56;5115929;28;20590;-64
2022/03/08 01:10:07;;;;;;;13.60;12.60;;;;;;;1.15;69.92;94674.97;5115773;28;20605;-64
2022/03/08 01:12:36;;;;;;;13.15;12.15;;;;;;;1.14;69.39;94670.66;5115859;28;20184;-64
2022/03/08 01:15:04;;;;;;;13.98;12.88;;;;;;;1.16;69.19;94668.47;5116139;28;20184;-64
2022/03/08 01:17:31;;;;;;;13.07;12.07;;;;;;;1.12;68.59;94664.72;5116011;28;20180;-64
2022/03/08 01:19:58;;;;;;;14.60;13.40;;;;;;;1.11;69.44;94673.19;5116052;28;20196;-64
2022/03/08 01:22:25;;;;;;;13.35;12.35;;;;;;;1.15;69.52;94663.31;5115106;28;20199;-64
2022/03/08 01:24:53;;;;;;;14.13;13.10;;;;;;;1.19;69.24;94664.31;5115724;28;20180;-64
2022/03/08 01:27:19;;;;;;;13.65;12.65;;;;;;;1.18;68.34;94663.50;5115878;28;20188;-64
2022/03/08 01:29:48;;;;;;;13.85;12.75;;;;;;;1.18;68.81;94668.16;5115327;28;20547;-64
2022/03/08 01:34:59;;;;;;;14.23;13.07;;;;;;;1.17;68.55;94664.63;5115416;28;20187;-64
2022/03/08 01:37:25;;;;;;;14.15;13.05;;;;;;;1.16;67.52;94665.75;5114600;28;20212;-64
2022/03/08 01:39:52;;;;;;;14.65;13.45;;;;;;;1.12;67.55;94666.63;5115820;28;20184;-64
2022/03/08 01:42:22;;;;;;;14.95;13.75;;;;;;;1.10;67.41;94663.44;5114532;28;20237;-64
2022/03/08 01:44:51;;;;;;;14.52;13.43;;;;;;;1.09;67.54;94657.19;5114862;28;20199;-64
2022/03/08 01:47:19;;;;;;;14.57;13.48;;;;;;;1.08;67.49;94654.78;5115757;28;20198;-64
2022/03/08 01:49:47;;;;;;;14.32;13.23;;;;;;;1.06;68.04;94659.72;5114388;28;20198;-64
2022/03/08 01:52:15;;;;;;;14.13;12.98;;;;;;;1.07;67.89;94664.84;5115539;28;20207;-64
2022/03/08 01:54:43;;;;;;;14.52;13.43;;;;;;;1.08;68.05;94657.50;5114314;28;20209;-64
2022/03/08 01:57:10;;;;;;;15.40;14.20;;;;;;;1.02;67.81;94654.09;5115489;28;20199;-64
2022/03/08 01:59:36;;;;;;;14.40;13.27;;;;;;;1.03;68.20;94661.13;5115483;28;20245;-64
2022/03/08 02:02:06;;;;;;;15.52;14.27;;;;;;;1.02;68.77;94658.69;5114314;28;20195;-64
2022/03/08 02:04:33;;;;;;;16.08;14.77;;;;;;;1.02;68.99;94650.53;5114639;28;20202;-64
2022/03/08 02:07:01;;;;;;;16.23;14.95;;;;;;;1.01;69.09;94655.16;5114526;28;20200;-64
2022/03/08 02:09:28;;;;;;;16.45;15.05;;;;;;;0.96;68.99;94658.00;5115372;28;20180;-64
2022/03/08 02:11:54;;;;;;;15.57;14.27;;;;;;;0.98;69.44;94655.81;5115483;28;20211;-64
2022/03/08 02:14:21;;;;;;;17.33;15.93;;;;;;;1.00;69.32;94653.56;5115405;28;20248;-64
2022/03/08 02:16:48;;;;;;;16.80;15.40;;;;;;;0.98;68.80;94661.22;5114431;28;20220;-64
2022/03/08 02:19:16;;;;;;;17.05;15.65;;;;;;;0.89;68.86;94655.69;5114319;28;20192;-64
2022/03/08 02:21:45;;;;;;;16.40;15.13;;;;;;;0.89;69.34;94660.31;5114951;28;20200;-64
2022/03/08 02:24:12;;;;;;;16.85;15.52;;;;;;;0.86;69.30;94656.28;5114419;28;20199;-64
2022/03/08 02:26:39;;;;;;;16.50;15.10;;;;;;;0.88;69.34;94659.53;5115144;28;20176;-64
2022/03/08 02:29:08;;;;;;;16.45;15.10;;;;;;;0.87;69.27;94663.34;5114359;28;20195;-64
2022/03/08 02:31:35;;;;;;;17.55;16.05;;;;;;;0.88;70.00;94662.22;5114402;28;20259;-64
2022/03/08 02:34:02;;;;;;;17.17;15.77;;;;;;;0.89;69.67;94669.25;5114882;28;20194;-64
2022/03/08 02:36:29;;;;;;;16.33;15.02;;;;;;;0.88;69.62;94666.88;5115319;28;20625;-64
2022/03/08 02:38:57;;;;;;;17.33;15.90;;;;;;;0.88;69.45;94667.66;5113912;28;20609;-64
2022/03/08 02:41:24;;;;;;;17.05;15.65;;;;;;;0.87;69.31;94670.66;5113768;28;20203;-64
2022/03/08 02:43:51;;;;;;;16.88;15.52;;;;;;;0.90;69.80;94670.88;5113887;28;20334;-64
2022/03/08 02:46:18;;;;;;;16.70;15.40;;;;;;;0.95;69.36;94678.94;5115072;28;20192;-64
2022/03/08 02:48:45;;;;;;;17.02;15.63;;;;;;;0.94;69.74;94677.31;5115228;28;20194;-64
2022/03/08 02:51:12;;;;;;;17.42;16.02;;;;;;;0.95;69.49;94673.50;5114988;28;20300;-64
2022/03/08 02:53:38;;;;;;;16.63;15.32;;;;;;;0.93;69.15;94677.63;5116603;28;20192;-64
2022/03/08 02:56:07;;;;;;;16.80;15.40;;;;;;;0.92;69.41;94678.72;5118439;28;20222;-64
2022/03/08 02:58:33;;;;;;;16.70;15.32;;;;;;;0.88;69.71;94688.59;5117874;28;20196;-64
2022/03/08 03:01:00;;;;;;;16.70;15.40;;;;;;;0.87;69.97;94686.94;5117740;28;20204;-64
2022/03/08 03:03:27;;;;;;;16.50;15.20;;;;;;;0.87;69.74;94687.78;5117675;28;20200;-64
2022/03/08 03:05:54;;;;;;;16.85;15.48;;;;;;;0.83;69.59;94692.19;5118212;28;20203;-64
2022/03/08 03:08:21;;;;;;;17.05;15.65;;;;;;;0.88;69.52;94683.16;5118625;28;20192;-64
2022/03/08 03:10:47;;;;;;;16.98;15.57;;;;;;;0.87;69.34;94681.53;5118461;28;20203;-64
2022/03/08 03:13:16;;;;;;;17.15;15.85;;;;;;;0.91;69.70;94683.34;5117413;28;20192;-64
2022/03/08 03:15:43;;;;;;;17.58;16.17;;;;;;;0.84;69.75;94693.81;5117399;28;20206;-64
2022/03/08 03:18:10;;;;;;;17.05;15.65;;;;;;;0.86;69.86;94694.28;5117545;28;20551;-64
2022/03/08 03:20:37;;;;;;;17.10;15.70;;;;;;;0.87;69.67;94704.06;5118075;28;20269;-64
2022/03/08 03:23:04;;;;;;;16.30;15.00;;;;;;;0.88;69.82;94705.69;5117504;28;20209;-64
2022/03/08 03:25:31;;;;;;;16.25;14.95;;;;;;;0.90;69.32;94698.00;5117186;28;20191;-64
2022/03/08 03:27:58;;;;;;;17.73;16.33;;;;;;;0.90;69.72;94706.16;5117588;28;20202;-64
2022/03/08 03:30:26;;;;;;;16.33;15.02;;;;;;;0.89;69.60;94707.28;5116891;28;20712;-64
2022/03/08 03:32:53;;;;;;;17.02;15.50;;;;;;;0.91;69.44;94704.28;5118006;28;20198;-64
2022/03/08 03:35:20;;;;;;;16.27;14.98;;;;;;;0.91;68.75;94701.56;5117024;28;20195;-64
2022/03/08 03:37:47;;;;;;;16.77;15.45;;;;;;;0.92;69.21;94697.72;5117104;28;20223;-64
2022/03/08 03:40:15;;;;;;;17.08;15.73;;;;;;;0.94;69.12;94706.38;5117123;28;20203;-63
2022/03/08 03:42:42;;;;;;;18.00;16.60;;;;;;;0.94;69.90;94699.06;5117610;28;20238;-64
2022/03/08 03:45:10;;;;;;;17.73;16.33;;;;;;;0.98;69.47;94703.84;5117724;28;20183;-64
2022/03/08 03:47:38;;;;;;;17.70;16.20;;;;;;;0.93;69.12;94697.41;5117812;28;20195;-64
2022/03/08 03:50:06;;;;;;;18.23;16.83;;;;;;;0.93;69.41;94697.41;5117696;27;20597;-64
2022/03/08 03:52:33;;;;;;;18.23;16.67;;;;;;;0.92;69.91;94701.25;5116932;28;20192;-64
2022/03/08 03:55:00;;;;;;;18.00;16.60;;;;;;;0.90;69.52;94700.72;5117394;28;20190;-64
2022/03/08 03:57:27;;;;;;;18.42;16.92;;;;;;;0.87;69.82;94698.66;5117548;28;20207;-65
2022/03/08 03:59:53;;;;;;;18.55;17.05;;;;;;;0.86;69.91;94707.88;5116774;28;20214;-64
2022/03/08 04:02:21;;;;;;;18.48;17.08;;;;;;;0.83;70.28;94710.38;5116902;28;20577;-64
2022/03/08 04:04:49;;;;;;;18.20;16.70;;;;;;;0.89;70.24;94709.19;5117080;27;20179;-64
2022/03/08 04:07:16;;;;;;;18.75;17.25;;;;;;;0.89;70.20;94710.00;5116109;28;20624;-64
2022/03/08 04:09:43;;;;;;;18.08;16.58;;;;;;;0.87;69.73;94704.06;5116638;28;20205;-64
2022/03/08 04:12:10;;;;;;;19.98;18.27;;;;;;;0.85;69.43;94706.28;5116534;28;20200;-64
2022/03/08 04:14:36;;;;;;;18.90;17.40;;;;;;;0.87;70.11;94703.25;5117259;28;20204;-64
2022/03/08 04:17:04;;;;;;;18.55;17.10;;;;;;;0.87;70.24;94700.53;5116827;28;20206;-64
2022/03/08 04:19:31;;;;;;;20.02;18.33;;;;;;;0.84;71.22;94707.38;5117127;28;20192;-64
2022/03/08 04:21:59;;;;;;;18.92;17.42;;;;;;;0.83;70.76;94704.94;5116107;28;20202;-64
2022/03/08 04:24:27;;;;;;;18.95;17.40;;;;;;;0.81;70.93;94696.31;5117041;28;20192;-64
2022/03/08 04:26:54;;;;;;;17.85;16.35;;;;;;;0.85;70.63;94705.47;5116396;28;20215;-64
2022/03/08 04:29:21;;;;;;;17.92;16.48;;;;;;;0.88;70.78;94707.59;5116905;28;20184;-64
2022/03/08 04:31:48;;;;;;;18.25;16.67;;;;;;;0.84;70.70;94703.88;5116314;28;20234;-64
2022/03/08 04:34:15;;;;;;;18.77;17.27;;;;;;;0.82;71.23;94701.44;5116893;28;20194;-63
2022/03/08 04:36:41;;;;;;;18.95;17.45;;;;;;;0.79;70.81;94701.22;5116720;28;20210;-64
2022/03/08 04:39:10;;;;;;;18.85;17.35;;;;;;;0.84;70.68;94701.16;5116391;27;20201;-63
2022/03/08 04:41:36;;;;;;;18.85;17.35;;;;;;;0.82;70.76;94706.88;5116753;28;20199;-63
2022/03/08 04:44:03;;;;;;;18.05;16.63;;;;;;;0.82;70.98;94700.63;5116794;28;20246;-64
2022/03/08 04:46:30;;;;;;;19.15;17.45;;;;;;;0.77;71.02;94696.13;5115627;28;20229;-64
2022/03/08 04:48:57;;;;;;;19.58;17.88;;;;;;;0.75;71.35;94697.50;5116620;28;20195;-64
2022/03/08 04:51:24;;;;;;;19.20;17.70;;;;;;;0.75;71.48;94698.31;5115627;28;20187;-64
2022/03/08 04:53:51;;;;;;;19.75;18.13;;;;;;;0.79;71.11;94710.19;5115951;28;20204;-64
2022/03/08 04:56:19;;;;;;;18.85;17.25;;;;;;;0.78;71.66;94700.44;5116326;28;20188;-64
2022/03/08 04:58:46;;;;;;;19.48;17.77;;;;;;;0.77;70.86;94715.13;5116280;28;20176;-64
2022/03/08 05:01:13;;;;;;;18.48;16.88;;;;;;;0.77;71.32;94704.25;5116235;28;20183;-64
2022/03/08 05:03:40;;;;;;;18.05;16.55;;;;;;;0.82;71.77;94717.72;5115945;28;20622;-67
2022/03/08 05:06:07;;;;;;;19.52;17.90;;;;;;;0.81;71.37;94709.91;5115876;28;20184;-64
2022/03/08 05:08:33;;;;;;;20.67;18.98;;;;;;;0.80;71.74;94705.53;5116128;28;20217;-64
2022/03/08 05:11:01;;;;;;;18.67;17.17;;;;;;;0.78;71.82;94710.50;5116168;28;20188;-66
2022/03/08 05:13:30;;;;;;;19.50;17.92;;;;;;;0.79;71.31;94709.38;5115356;28;20201;-65
2022/03/08 05:15:57;;;;;;;18.65;17.23;;;;;;;0.80;71.68;94709.09;5114178;28;20206;-67
2022/03/08 05:18:24;;;;;;;17.60;16.00;;;;;;;0.83;71.00;94711.19;5114915;28;20424;-67
2022/03/08 05:20:50;;;;;;;18.73;17.02;;;;;;;0.86;71.37;94707.06;5115436;28;20481;-66
2022/03/08 05:23:17;;;;;;;15.95;14.55;;;;;;;0.91;70.81;94707.00;5115789;28;20198;-65
2022/03/08 05:25:45;;;;;;;15.65;14.20;;;;;;;0.89;70.51;94711.91;5115719;28;20195;-66
2022/03/08 05:28:12;;;;;;;16.70;15.10;;;;;;;0.85;70.90;94706.28;5116015;28;20198;-65
2022/03/08 05:30:40;;;;;;;15.77;14.27;;;;;;;0.84;70.49;94703.88;5115831;28;20192;-65
2022/03/08 05:33:07;;;;;;;16.95;15.35;;;;;;;0.86;70.85;94701.63;5115826;28;20285;-65
2022/03/08 05:35:34;;;;;;;16.08;14.63;;;;;;;0.88;70.62;94699.44;5116021;28;20209;-65
2022/03/08 05:38:01;;;;;;;16.92;15.35;;;;;;;0.88;70.63;94708.38;5114346;28;20226;-64
2022/03/08 05:40:28;;;;;;;19.70;18.02;;;;;;;0.88;70.99;94716.53;5115726;28;20278;-66
2022/03/08 05:42:55;;;;;;;19.98;18.35;;;;;;;0.85;70.56;94703.56;5115299;28;20240;-64
2022/03/08 05:45:23;;;;;;;19.27;17.65;;;;;;;0.84;70.60;94710.09;5115284;28;20594;-64
2022/03/08 05:47:51;;;;;;;18.80;17.20;;;;;;;0.87;70.82;94712.22;5115308;28;20499;-64
2022/03/08 05:50:18;;;;;;;19.17;17.67;;;;;;;0.89;70.43;94707.28;5114372;28;20196;-64
2022/03/08 05:52:45;;;;;;;18.73;17.23;;;;;;;0.93;70.95;94719.16;5115692;28;20192;-64
2022/03/08 05:55:12;;;;;;;18.13;16.70;;;;;;;0.99;70.36;94714.44;5114463;28;20200;-64
2022/03/08 05:57:39;;;;;;;18.23;16.73;;;;;;;1.03;70.44;94712.72;5114210;28;20207;-63
2022/03/08 06:00:07;;;;;;;18.85;17.35;;;;;;;1.08;70.43;94717.25;5115530;28;20628;-63
2022/03/08 06:02:34;;;;;;;18.58;17.02;;;;;;;1.12;69.87;94710.91;5115574;28;20187;-63
2022/03/08 06:05:02;;;;;;;19.25;17.60;;;;;;;1.15;69.73;94721.16;5115747;28;20184;-63
2022/03/08 06:07:29;;;;;;;18.23;16.73;;;;;;;1.16;69.58;94720.09;5115367;28;20188;-63
2022/03/08 06:09:56;;;;;;;19.40;17.83;;;;;;;1.18;69.97;94717.84;5115579;28;20179;-63
2022/03/08 06:12:22;;;;;;;17.58;16.17;;;;;;;1.19;69.26;94715.94;5115617;28;20213;-63
2022/03/08 06:14:49;;;;;;;18.02;16.52;;;;;;;1.21;69.38;94721.88;5116640;28;20194;-63
2022/03/08 06:17:16;;;;;;;18.45;17.02;;;;;;;1.22;69.07;94718.06;5114842;28;20215;-63
2022/03/08 06:19:43;;;;;;;18.45;17.02;;;;;;;1.23;69.68;94716.94;5114748;28;20204;-64
2022/03/08 06:22:11;;;;;;;17.65;16.25;;;;;;;1.26;69.16;94721.78;5114175;28;20191;-64
2022/03/08 06:24:38;;;;;;;17.63;16.13;;;;;;;1.31;69.33;94729.03;5114997;28;20203;-64
2022/03/08 06:27:05;;;;;;;17.45;16.05;;;;;;;1.33;69.32;94721.38;5116365;28;20545;-64
2022/03/08 06:29:32;;;;;;;17.25;15.85;;;;;;;1.36;68.65;94727.00;5118413;28;20666;-64
2022/03/08 06:31:59;;;;;;;17.48;16.08;;;;;;;1.37;68.70;94725.09;5118704;28;20202;-65
2022/03/08 06:34:25;;;;;;;17.27;15.90;;;;;;;1.38;68.70;94721.25;5118754;28;20613;-64
2022/03/08 06:36:52;;;;;;;17.50;16.20;;;;;;;1.37;68.30;94728.59;5119483;28;20609;-64
2022/03/08 06:39:20;;;;;;;17.20;15.80;;;;;;;1.38;68.17;94732.94;5118525;28;20195;-64
2022/03/08 06:41:47;;;;;;;17.63;16.23;;;;;;;1.35;67.97;94728.13;5119540;28;20206;-64
2022/03/08 06:44:14;;;;;;;17.13;15.82;;;;;;;1.37;68.42;94731.31;5117862;28;20267;-64
2022/03/08 06:46:44;;;;;;;16.45;15.15;;;;;;;1.40;68.14;94725.28;5118225;28;20206;-64
2022/03/08 06:49:11;;;;;;;16.00;14.70;;;;;;;1.39;68.16;94731.84;5118318;28;20199;-64
2022/03/08 06:51:38;;;;;;;16.15;14.95;;;;;;;1.42;68.76;94733.16;5119023;27;20201;-64
2022/03/08 06:54:05;;;;;;;14.98;13.85;;;;;;;1.44;67.84;94733.63;5117840;28;20670;-64
2022/03/08 06:56:34;;;;;;;15.63;14.43;;;;;;;1.44;67.81;94742.59;5119164;28;20281;-64
2022/03/08 06:59:01;;;;;;;14.07;12.98;;;;;;;1.44;67.50;94733.63;5117960;28;20219;-64
2022/03/08 07:01:28;;;;;;;14.30;13.20;;;;;;;1.49;67.98;94736.28;5117908;28;20199;-65
2022/03/08 07:03:55;;;;;;;13.27;12.18;;;;;;;1.49;67.17;94730.84;5118893;28;20202;-64
2022/03/08 07:06:21;;;;;;;13.45;12.45;;;;;;;1.51;67.05;94736.75;5117964;28;20512;-65
2022/03/08 07:08:48;;;;;;;14.10;13.00;;;;;;;1.49;67.01;94743.59;5118244;28;20195;-65
2022/03/08 07:11:15;;;;;;;13.75;12.68;;;;;;;1.42;66.54;94735.88;5118461;28;20188;-65
2022/03/08 07:13:43;;;;;;;13.68;12.57;;;;;;;1.44;67.50;94739.06;5119156;28;20278;-65
2022/03/08 07:16:10;;;;;;;13.40;12.40;;;;;;;1.46;67.02;94742.31;5118330;28;20210;-65
2022/03/08 07:18:37;;;;;;;15.07;13.98;;;;;;;1.45;66.49;94737.97;5117281;28;20433;-67
2022/03/08 07:21:04;;;;;;;12.80;11.82;;;;;;;1.46;67.50;94738.78;5118399;28;20176;-66
2022/03/08 07:23:31;;;;;;;12.90;12.00;;;;;;;1.52;66.89;94734.84;5117663;28;20200;-67
2022/03/08 07:25:58;;;;;;;13.25;12.25;;;;;;;1.53;66.17;94737.25;5117702;28;20286;-65
2022/03/08 07:28:24;;;;;;;12.68;11.70;;;;;;;1.54;66.26;94743.50;5118625;28;20286;-64
2022/03/08 07:30:53;;;;;;;13.38;12.38;;;;;;;1.54;65.87;94746.22;5117198;28;20429;-65
2022/03/08 07:33:19;;;;;;;13.20;12.25;;;;;;;1.48;65.78;94742.78;5117195;28;20192;-64
2022/03/08 07:35:46;;;;;;;14.00;12.93;;;;;;;1.52;66.62;94737.56;5117983;28;20440;-63
2022/03/08 07:38:13;;;;;;;14.45;13.30;;;;;;;1.57;66.76;94740.19;5116057;28;20219;-64
2022/03/08 07:40:40;;;;;;;14.18;13.07;;;;;;;1.58;66.30;94734.44;5118032;28;20195;-65
2022/03/08 07:43:07;;;;;;;14.48;13.38;;;;;;;1.60;66.40;94737.66;5117698;28;20244;-64
2022/03/08 07:45:35;;;;;;;15.40;14.20;;;;;;;1.58;65.64;94734.44;5116824;28;20433;-66
2022/03/08 07:48:04;;;;;;;16.08;14.88;;;;;;;1.49;65.92;94733.56;5116334;28;20429;-67
2022/03/08 07:50:32;;;;;;;15.07;13.98;;;;;;;1.46;66.68;94738.78;5117799;28;20227;-65
2022/03/08 07:53:00;;;;;;;15.50;14.40;;;;;;;1.46;66.51;94741.50;5117354;28;20431;-65
2022/03/08 07:55:27;;;;;;;15.63;14.43;;;;;;;1.53;66.09;94728.31;5117321;28;20420;-65
2022/03/08 07:57:54;;;;;;;15.93;14.73;;;;;;;1.49;66.09;94740.88;5117532;28;20564;-65
2022/03/08 08:00:20;;;;;;;14.63;13.43;;;;;;;1.45;65.37;94735.25;5116976;28;20200;-65
2022/03/08 08:02:47;;;;;;;16.20;14.93;;;;;;;1.55;65.79;94734.22;5117183;28;20192;-65
2022/03/08 08:05:17;;;;;;;15.38;14.18;;;;;;;1.54;65.69;94736.16;5117576;28;20199;-65
2022/03/08 08:07:43;;;;;;;15.65;14.35;;;;;;;1.54;65.26;94733.44;5117873;28;20183;-65
2022/03/08 08:10:11;;;;;;;16.55;15.23;;;;;;;1.59;64.98;94737.94;5116573;28;20209;-65
2022/03/08 08:12:38;;;;;;;17.70;16.30;;;;;;;1.58;64.70;94734.44;5116312;28;20552;-65
2022/03/08 08:15:06;;;;;;;16.67;15.35;;;;;;;1.60;64.39;94739.56;5116001;28;20721;-65
2022/03/08 08:17:33;;;;;;;15.95;14.80;;;;;;;1.65;64.64;94734.81;5115914;28;20206;-65
2022/03/08 08:20:00;;;;;;;16.98;15.68;;;;;;;1.65;64.61;94731.31;5116389;28;20268;-65
2022/03/08 08:22:28;;;;;;;16.23;14.93;;;;;;;1.64;64.22;94732.41;5117179;28;20191;-65
2022/03/08 08:24:55;;;;;;;16.40;15.10;;;;;;;1.70;65.11;94742.06;5116791;27;20514;-64
2022/03/08 08:27:22;;;;;;;16.42;15.13;;;;;;;1.64;64.95;94735.13;5117183;28;20268;-64
2022/03/08 08:29:48;;;;;;;17.33;15.85;;;;;;;1.68;64.37;94738.84;5116659;28;20176;-65
2022/03/08 08:32:15;;;;;;;17.30;15.93;;;;;;;1.68;63.51;94745.09;5117094;28;20180;-65
2022/03/08 08:34:42;;;;;;;17.58;16.08;;;;;;;1.62;63.50;94745.50;5115981;28;20199;-65
2022/03/08 08:37:09;;;;;;;16.80;15.50;;;;;;;1.46;63.93;94752.38;5117102;28;20199;-65
2022/03/08 08:39:38;;;;;;;17.35;16.05;;;;;;;1.32;63.69;94755.09;5116689;28;20200;-65
2022/03/08 08:42:05;;;;;;;18.23;16.83;;;;;;;1.25;63.57;94747.34;5116656;28;20204;-65
2022/03/08 08:44:32;;;;;;;18.67;17.23;;;;;;;1.24;63.31;94753.09;5116648;28;20180;-64
2022/03/08 08:46:59;;;;;;;19.65;18.15;;;;;;;1.32;63.86;94749.66;5115703;28;20196;-64
2022/03/08 08:49:26;;;;;;;19.30;17.70;;;;;;;1.33;63.06;94754.78;5116064;28;20176;-64
2022/03/08 08:51:53;;;;;;;19.80;18.20;;;;;;;1.34;63.10;94748.22;5115511;28;20608;-64
2022/03/08 08:54:19;;;;;;;18.70;17.20;;;;;;;1.36;63.10;94756.09;5116224;28;20221;-63
2022/03/08 08:56:48;;;;;;;19.02;17.52;;;;;;;1.35;63.23;94759.94;5115742;28;20260;-63
2022/03/08 08:59:14;;;;;;;19.60;18.10;;;;;;;1.34;63.29;94756.38;5116332;28;20208;-63
2022/03/08 09:01:41;;;;;;;19.35;17.75;;;;;;;1.36;64.05;94753.38;5116412;28;20203;-65
2022/03/08 09:04:08;;;;;;;21.13;19.52;;;;;;;1.36;62.40;94759.63;5116451;28;20184;-65
2022/03/08 09:06:35;;;;;;;19.85;18.25;;;;;;;1.29;61.86;94763.84;5115951;28;20222;-65
2022/03/08 09:09:02;;;;;;;21.85;20.08;;;;;;;1.27;61.75;94758.72;5115660;28;20523;-66
2022/03/08 09:11:29;;;;;;;21.33;19.58;;;;;;;1.25;61.66;94757.41;5115958;28;20180;-65
2022/03/08 09:13:58;;;;;;;20.97;19.37;;;;;;;1.20;61.44;94753.69;5115892;28;20436;-65
2022/03/08 09:16:25;;;;;;;20.85;19.15;;;;;;;1.29;61.84;94761.13;5115767;28;20432;-66
2022/03/08 09:18:52;;;;;;;20.90;19.30;;;;;;;1.33;61.43;94759.41;5115829;28;20268;-64
2022/03/08 09:21:18;;;;;;;21.65;19.92;;;;;;;1.29;60.87;94770.06;5114590;28;20203;-64
2022/03/08 09:23:45;;;;;;;20.95;19.25;;;;;;;1.25;61.38;94765.56;5116148;28;20195;-64
2022/03/08 09:26:12;;;;;;;22.05;20.15;;;;;;;1.27;61.72;94766.03;5115521;28;20613;-65
2022/03/08 09:28:39;;;;;;;21.38;19.67;;;;;;;1.32;61.40;94758.59;5115920;28;20198;-65
2022/03/08 09:31:07;;;;;;;20.85;19.08;;;;;;;1.29;60.53;94772.00;5114883;28;20195;-65
2022/03/08 09:33:34;;;;;;;20.98;19.27;;;;;;;1.28;61.18;94776.63;5115925;28;20187;-64
2022/03/08 09:36:01;;;;;;;20.35;18.67;;;;;;;1.26;60.71;94769.88;5116253;28;20241;-67
2022/03/08 09:38:28;;;;;;;22.75;20.95;;;;;;;1.25;60.92;94763.63;5114770;28;20581;-67
2022/03/08 09:40:54;;;;;;;21.75;19.95;;;;;;;1.32;61.82;94769.47;5114968;28;20198;-67
2022/03/08 09:43:21;;;;;;;21.70;19.90;;;;;;;1.37;60.86;94768.56;5115504;28;20245;-65
2022/03/08 09:45:48;;;;;;;21.75;20.05;;;;;;;1.41;61.34;94766.84;5115455;28;20601;-65
2022/03/08 09:48:17;;;;;;;21.10;19.40;;;;;;;1.36;60.39;94769.69;5114787;28;20192;-65
2022/03/08 09:50:44;;;;;;;21.77;19.98;;;;;;;1.46;61.11;94771.41;5115716;28;20218;-65
2022/03/08 09:53:12;;;;;;;22.95;21.05;;;;;;;1.42;60.94;94757.63;5114671;28;20208;-65
2022/03/08 09:55:39;;;;;;;22.30;20.50;;;;;;;1.42;60.16;94758.41;5115211;28;20196;-64
2022/03/08 09:58:06;;;;;;;22.30;20.50;;;;;;;1.46;60.91;94768.69;5115110;28;20203;-65
2022/03/08 10:00:33;;;;;;;22.27;20.40;;;;;;;1.48;60.60;94763.72;5115657;28;20180;-64
2022/03/08 10:03:01;;;;;;;22.08;20.27;;;;;;;1.53;61.25;94769.88;5118744;28;20281;-64
2022/03/08 10:05:37;;;;;;;21.98;20.17;;;;;;;1.48;60.95;94775.41;5119474;28;20190;-64
2022/03/08 10:08:11;;;;;;;21.52;19.83;;;;;;;1.51;60.19;94771.28;5120246;28;20179;-64
2022/03/08 10:10:50;;;;;;;21.98;20.17;;;;;;;1.50;61.90;94767.75;5119953;28;20236;-64
2022/03/08 10:13:17;;;;;;;21.38;19.67;;;;;;;1.59;61.25;94774.09;5118329;28;20195;-64
2022/03/08 10:15:44;;;;;;;21.77;20.00;;;;;;;1.61;61.10;94766.44;5119613;28;20206;-64
2022/03/08 10:18:11;;;;;;;21.25;19.45;;;;;;;1.68;60.64;94769.56;5119725;28;20203;-64
2022/03/08 10:20:39;;;;;;;22.83;20.92;;;;;;;1.76;61.46;94773.47;5118600;28;20199;-64
2022/03/08 10:23:13;;;;;;;22.83;20.95;;;;;;;1.69;60.72;94762.22;5119086;28;20184;-65
2022/03/08 10:25:41;;;;;;;23.55;21.63;;;;;;;1.76;61.58;94767.25;5119256;28;20303;-65
2022/03/08 10:28:08;;;;;;;20.90;19.30;;;;;;;1.84;60.77;94766.50;5118599;28;20207;-64
2022/03/08 10:30:52;;;;;;;22.38;20.48;;;;;;;1.92;60.47;94765.78;5118997;28;20194;-64
2022/03/08 10:33:22;;;;;;;23.40;21.65;;;;;;;1.97;60.09;94767.59;5117185;28;20432;-65
2022/03/08 10:35:53;;;;;;;21.98;20.27;;;;;;;2.01;59.87;94772.13;5118269;28;20206;-64
2022/03/08 10:38:21;;;;;;;22.27;20.60;;;;;;;2.08;60.17;94772.50;5118413;28;20196;-66
2022/03/08 10:40:48;;;;;;;22.55;20.75;;;;;;;2.07;60.56;94773.63;5119434;28;20176;-66
2022/03/08 10:43:16;;;;;;;22.42;20.63;;;;;;;2.16;60.29;94770.97;5118972;28;20235;-66
2022/03/08 10:45:45;;;;;;;22.63;20.90;;;;;;;2.19;58.92;94761.41;5118072;28;20202;-65
2022/03/08 10:48:14;;;;;;;21.40;19.70;;;;;;;2.15;58.37;94756.56;5118243;28;20215;-64
2022/03/08 10:50:42;;;;;;;21.30;19.60;;;;;;;1.99;57.94;94762.66;5117999;28;20195;-64
2022/03/08 10:53:11;;;;;;;22.80;21.00;;;;;;;1.97;59.20;94762.97;5118801;28;20425;-65
2022/03/08 10:55:40;;;;;;;25.00;23.05;;;;;;;2.07;59.33;94753.75;5117633;28;20435;-65
2022/03/08 10:58:08;;;;;;;23.33;21.42;;;;;;;1.98;59.63;94763.78;5118638;28;20420;-64
2022/03/08 11:00:38;;;;;;;22.63;20.83;;;;;;;2.18;58.71;94755.16;5118359;28;20640;-64
2022/03/08 11:03:07;;;;;;;21.33;19.63;;;;;;;2.31;58.54;94761.66;5118673;28;20184;-64
2022/03/08 11:05:36;;;;;;;22.25;20.40;;;;;;;2.42;58.34;94755.66;5118712;28;20188;-64
2022/03/08 11:08:03;;;;;;;20.75;19.05;;;;;;;2.53;58.71;94764.38;5118156;28;20192;-64
2022/03/08 11:10:32;;;;;;;21.55;19.85;;;;;;;2.69;57.28;94753.94;5117674;28;20204;-65
2022/03/08 11:13:00;;;;;;;21.90;20.00;;;;;;;2.84;57.00;94755.47;5116868;28;20207;-64
2022/03/08 11:15:29;;;;;;;21.90;20.10;;;;;;;2.74;56.51;94755.72;5117509;28;20196;-66
2022/03/08 11:17:57;;;;;;;22.75;20.75;;;;;;;2.79;55.48;94758.31;5117477;28;20536;-64
2022/03/08 11:20:25;;;;;;;22.42;20.52;;;;;;;2.89;55.87;94749.88;5117300;28;20220;-65
2022/03/08 11:22:53;;;;;;;22.75;20.90;;;;;;;3.14;56.50;94751.94;5118035;28;20187;-65
2022/03/08 11:25:20;;;;;;;20.50;18.80;;;;;;;3.44;54.84;94751.41;5117402;28;20214;-64
2022/03/08 11:27:49;;;;;;;21.73;19.92;;;;;;;3.71;55.72;94739.47;5118123;27;20266;-64